Time;durP1;ratioP1;P1;durP2;ratioP2;P2;SDS_P1;SDS_P2;PMS_P1;PMS_P2;Temp;Humidity;BMP_temperature;BMP_pressure;BME280_temperature;BME280_humidity;BME280_pressure;Samples;Min_cycle;Max_cycle;Signal;HPM_P1;HPM_P2
2023/11/27 00:02:10;;;;;;;1.30;0.90;;;;;;;-3.12;100.00;97713.09;105218;1257;70263;-58
2023/11/27 00:04:38;;;;;;;1.00;0.80;;;;;;;-3.10;100.00;97713.39;105393;1254;72321;-57
2023/11/27 00:07:06;;;;;;;2.60;1.10;;;;;;;-3.07;100.00;97703.30;105343;1257;60521;-60
2023/11/27 00:09:33;;;;;;;1.00;0.70;;;;;;;-3.05;100.00;97705.00;105123;1259;60501;-60
2023/11/27 00:12:04;;;;;;;1.40;0.80;;;;;;;-3.05;100.00;97700.42;105276;1254;73758;-58
2023/11/27 00:14:31;;;;;;;1.10;0.80;;;;;;;-3.06;100.00;97708.16;105129;1260;65638;-59
2023/11/27 00:16:59;;;;;;;1.70;0.80;;;;;;;-3.06;100.00;97709.23;105094;1253;72696;-59
2023/11/27 00:19:26;;;;;;;1.50;0.90;;;;;;;-3.05;100.00;97711.84;105264;1256;60662;-58
2023/11/27 00:21:54;;;;;;;2.50;1.00;;;;;;;-3.03;100.00;97711.27;105100;1258;60602;-59
2023/11/27 00:24:21;;;;;;;1.60;1.00;;;;;;;-3.03;100.00;97713.91;105219;1254;72646;-58
2023/11/27 00:26:48;;;;;;;2.00;0.90;;;;;;;-3.03;100.00;97714.79;105286;1256;66011;-58
2023/11/27 00:29:16;;;;;;;2.20;1.00;;;;;;;-3.05;100.00;97705.86;105231;1258;72287;-57
2023/11/27 00:31:43;;;;;;;1.30;0.80;;;;;;;-3.06;100.00;97707.64;105236;1254;60442;-59
2023/11/27 00:34:11;;;;;;;1.90;0.70;;;;;;;-3.06;100.00;97704.84;105700;1259;60389;-59
2023/11/27 00:36:39;;;;;;;1.30;0.90;;;;;;;-3.05;100.00;97709.91;105381;1256;72665;-58
2023/11/27 00:39:08;;;;;;;1.10;0.70;;;;;;;-3.04;100.00;97717.09;105244;1254;67041;-57
2023/11/27 00:41:37;;;;;;;1.90;1.00;;;;;;;-3.04;100.00;97709.19;105964;1258;72122;-58
2023/11/27 00:44:04;;;;;;;2.40;0.80;;;;;;;-3.03;100.00;97713.73;106352;1256;60624;-57
2023/11/27 00:46:33;;;;;;;3.90;0.90;;;;;;;-3.02;100.00;97713.35;105257;1254;62138;-58
2023/11/27 00:49:00;;;;;;;1.30;0.70;;;;;;;-3.02;100.00;97716.86;105483;1256;72638;-57
2023/11/27 00:51:29;;;;;;;2.00;0.80;;;;;;;-2.99;100.00;97711.53;108917;1255;67008;-59
2023/11/27 00:53:56;;;;;;;1.10;0.70;;;;;;;-2.98;100.00;97709.94;108851;1254;73164;-60
2023/11/27 00:56:24;;;;;;;1.10;0.70;;;;;;;-2.98;100.00;97713.27;108883;1256;61204;-58
2023/11/27 00:58:53;;;;;;;1.10;0.80;;;;;;;-2.98;100.00;97715.70;108932;1254;59980;-59
2023/11/27 01:01:20;;;;;;;1.10;0.80;;;;;;;-2.97;100.00;97711.09;108989;1256;74012;-58
2023/11/27 01:03:47;;;;;;;1.30;0.90;;;;;;;-2.94;100.00;97714.55;108950;1254;66427;-59
2023/11/27 01:06:15;;;;;;;1.10;0.70;;;;;;;-2.93;100.00;97709.95;108906;1255;72797;-59
2023/11/27 01:08:42;;;;;;;1.20;0.70;;;;;;;-2.92;100.00;97705.37;108951;1254;59404;-58
2023/11/27 01:11:10;;;;;;;2.00;0.80;;;;;;;-2.92;100.00;97707.46;108743;1254;59996;-58
2023/11/27 01:13:38;;;;;;;1.10;0.70;;;;;;;-2.91;100.00;97710.95;108941;1254;74487;-59
2023/11/27 01:16:06;;;;;;;3.10;0.70;;;;;;;-2.90;100.00;97705.66;108678;1254;65566;-58
2023/11/27 01:18:33;;;;;;;1.00;0.80;;;;;;;-2.88;100.00;97709.27;109046;1255;72831;-59
2023/11/27 01:21:01;;;;;;;1.00;0.70;;;;;;;-2.87;100.00;97708.73;109001;1254;59682;-58
2023/11/27 01:23:28;;;;;;;1.30;0.80;;;;;;;-2.88;100.00;97706.64;108895;1254;60081;-58
2023/11/27 01:25:56;;;;;;;0.90;0.70;;;;;;;-2.87;100.00;97705.73;108924;1254;72593;-58
2023/11/27 01:28:23;;;;;;;1.10;0.60;;;;;;;-2.86;100.00;97707.64;108869;1254;65409;-58
2023/11/27 01:30:50;;;;;;;1.00;0.70;;;;;;;-2.82;100.00;97711.23;108782;1254;73181;-58
2023/11/27 01:33:18;;;;;;;1.70;0.70;;;;;;;-2.81;100.00;97711.40;106015;1256;60387;-58
2023/11/27 01:35:46;;;;;;;1.30;0.70;;;;;;;-2.83;100.00;97710.55;108823;1254;60092;-58
2023/11/27 01:38:13;;;;;;;2.40;0.80;;;;;;;-2.86;100.00;97714.14;107249;1258;73020;-58
2023/11/27 01:40:40;;;;;;;2.60;0.70;;;;;;;-2.91;100.00;97711.30;105249;1258;68215;-57
2023/11/27 01:43:14;;;;;;;4.90;0.80;;;;;;;-2.97;100.00;97708.48;105223;1253;75201;-59
2023/11/27 01:45:42;;;;;;;1.40;0.80;;;;;;;-2.99;100.00;97705.05;105144;1256;61009;-57
2023/11/27 01:48:10;;;;;;;1.70;0.70;;;;;;;-3.00;100.00;97711.55;105319;1253;60438;-57
2023/11/27 01:50:37;;;;;;;1.10;0.80;;;;;;;-3.01;100.00;97708.25;106719;1254;73898;-57
2023/11/27 01:53:05;;;;;;;1.30;0.70;;;;;;;-3.02;100.00;97707.91;104931;1260;65807;-57
2023/11/27 01:55:33;;;;;;;1.10;0.70;;;;;;;-3.02;100.00;97707.73;105527;1258;72699;-58
2023/11/27 01:58:01;;;;;;;1.40;0.80;;;;;;;-3.04;100.00;97708.66;105359;1257;61524;-57
2023/11/27 02:00:28;;;;;;;1.50;1.00;;;;;;;-3.06;100.00;97711.15;105092;1257;60573;-58
2023/11/27 02:02:56;;;;;;;1.10;0.70;;;;;;;-3.06;100.00;97713.09;105040;1260;73295;-57
2023/11/27 02:05:24;;;;;;;1.00;0.70;;;;;;;-3.06;100.00;97713.08;105449;1256;65502;-57
2023/11/27 02:07:51;;;;;;;1.20;0.80;;;;;;;-3.07;100.00;97709.96;105335;1257;72901;-57
2023/11/27 02:10:19;;;;;;;1.70;0.70;;;;;;;-3.08;100.00;97711.23;105130;1254;60908;-59
2023/11/27 02:12:47;;;;;;;1.90;0.70;;;;;;;-3.09;100.00;97711.43;105367;1258;60483;-57
2023/11/27 02:15:14;;;;;;;1.10;0.70;;;;;;;-3.08;100.00;97710.37;105591;1256;74641;-56
2023/11/27 02:17:42;;;;;;;4.90;0.70;;;;;;;-3.07;100.00;97715.05;105519;1256;66308;-58
2023/11/27 02:20:10;;;;;;;1.20;0.70;;;;;;;-3.07;100.00;97711.73;105179;1259;72714;-58
2023/11/27 02:22:38;;;;;;;1.00;0.70;;;;;;;-3.07;100.00;97719.61;105269;1253;61284;-59
2023/11/27 02:25:06;;;;;;;1.10;0.70;;;;;;;-3.06;100.00;97719.39;105347;1259;60445;-56
2023/11/27 02:27:34;;;;;;;1.20;0.70;;;;;;;-3.05;100.00;97723.92;106020;1255;73325;-57
2023/11/27 02:30:02;;;;;;;2.20;0.90;;;;;;;-3.02;100.00;97722.31;105257;1259;64856;-58
2023/11/27 02:32:29;;;;;;;1.50;0.70;;;;;;;-3.02;100.00;97720.72;106367;1256;71471;-58
2023/11/27 02:34:57;;;;;;;3.20;0.70;;;;;;;-2.99;100.00;97729.95;105324;1255;62260;-58
2023/11/27 02:37:25;;;;;;;1.70;0.70;;;;;;;-2.97;100.00;97733.94;105076;1256;60533;-58
2023/11/27 02:39:53;;;;;;;1.40;0.80;;;;;;;-2.96;100.00;97730.04;105311;1260;73837;-58
2023/11/27 02:42:21;;;;;;;2.10;0.80;;;;;;;-2.97;100.00;97733.95;105442;1254;66565;-59
2023/11/27 02:44:48;;;;;;;1.00;0.70;;;;;;;-2.99;100.00;97733.65;105161;1254;72758;-58
2023/11/27 02:47:16;;;;;;;3.90;0.70;;;;;;;-3.01;100.00;97737.90;105274;1257;60431;-57
2023/11/27 02:49:43;;;;;;;1.20;0.80;;;;;;;-3.02;100.00;97736.00;105269;1256;60714;-58
2023/11/27 02:52:10;;;;;;;1.00;0.70;;;;;;;-3.03;100.00;97738.30;105000;1261;73990;-59
2023/11/27 02:54:38;;;;;;;1.20;0.70;;;;;;;-3.04;100.00;97737.08;105349;1261;66088;-58
2023/11/27 02:57:08;;;;;;;1.30;0.60;;;;;;;-3.02;100.00;97736.88;105419;1254;73561;-58
2023/11/27 02:59:35;;;;;;;1.20;0.70;;;;;;;-3.01;100.00;97749.30;105457;1259;60963;-59
2023/11/27 03:02:03;;;;;;;1.10;0.70;;;;;;;-3.00;100.00;97741.23;105197;1254;60588;-58
2023/11/27 03:04:31;;;;;;;1.10;0.80;;;;;;;-3.00;100.00;97747.71;105150;1254;73768;-59
2023/11/27 03:06:58;;;;;;;1.90;0.70;;;;;;;-3.00;100.00;97748.39;105222;1255;66392;-59
2023/11/27 03:09:26;;;;;;;1.90;0.70;;;;;;;-2.99;100.00;97749.45;105224;1258;72675;-58
2023/11/27 03:11:53;;;;;;;0.80;0.60;;;;;;;-2.99;100.00;97741.20;105322;1255;61361;-58
2023/11/27 03:14:21;;;;;;;2.50;0.70;;;;;;;-3.00;100.00;97741.22;105242;1255;60420;-57
2023/11/27 03:16:48;;;;;;;2.10;0.70;;;;;;;-3.02;100.00;97744.93;105288;1259;72639;-57
2023/11/27 03:19:16;;;;;;;1.20;0.80;;;;;;;-3.05;100.00;97752.55;105153;1255;66835;-58
2023/11/27 03:21:43;;;;;;;1.20;0.80;;;;;;;-3.07;100.00;97755.25;105321;1255;73814;-58
2023/11/27 03:24:11;;;;;;;1.00;0.60;;;;;;;-3.07;100.00;97756.82;105108;1260;61449;-57
2023/11/27 03:26:38;;;;;;;1.00;0.70;;;;;;;-3.06;100.00;97761.70;105137;1258;60591;-55
2023/11/27 03:29:06;;;;;;;1.00;0.60;;;;;;;-3.05;100.00;97761.67;105119;1254;72112;-58
2023/11/27 03:31:34;;;;;;;0.90;0.70;;;;;;;-3.03;100.00;97768.81;105251;1255;66050;-59
2023/11/27 03:34:02;;;;;;;1.00;0.60;;;;;;;-3.01;100.00;97769.31;105466;1258;70710;-58
2023/11/27 03:36:30;;;;;;;0.90;0.60;;;;;;;-3.00;100.00;97772.80;106727;1256;61810;-58
2023/11/27 03:38:58;;;;;;;1.20;0.60;;;;;;;-2.99;100.00;97775.38;105591;1258;60432;-57
2023/11/27 03:41:25;;;;;;;4.00;0.70;;;;;;;-2.96;100.00;97781.62;105185;1254;72576;-57
2023/11/27 03:43:53;;;;;;;1.10;0.60;;;;;;;-2.95;100.00;97783.88;105104;1259;66938;-58
2023/11/27 03:46:21;;;;;;;1.10;0.70;;;;;;;-2.94;100.00;97780.89;108887;1254;71445;-58
2023/11/27 03:48:49;;;;;;;1.30;0.70;;;;;;;-2.94;100.00;97788.95;108845;1254;60192;-59
2023/11/27 03:51:16;;;;;;;3.40;1.10;;;;;;;-2.95;100.00;97797.20;108779;1254;60038;-59
2023/11/27 03:53:44;;;;;;;1.20;0.70;;;;;;;-2.96;100.00;97800.05;108896;1255;71581;-58
2023/11/27 03:56:11;;;;;;;0.90;0.60;;;;;;;-2.97;100.00;97800.27;108874;1254;66858;-59
2023/11/27 03:58:39;;;;;;;0.90;0.60;;;;;;;-2.99;100.00;97801.02;108875;1256;71494;-57
2023/11/27 04:01:07;;;;;;;1.90;0.60;;;;;;;-3.00;100.00;97799.28;108924;1255;59630;-58
2023/11/27 04:03:39;;;;;;;1.10;0.70;;;;;;;-3.02;100.00;97795.30;108923;1255;59279;-59
2023/11/27 04:06:08;;;;;;;1.10;0.70;;;;;;;-3.03;100.00;97798.31;108844;1253;71669;-58
2023/11/27 04:08:39;;;;;;;1.60;0.80;;;;;;;-3.05;100.00;97799.21;108823;1254;69530;-58
2023/11/27 04:11:09;;;;;;;1.00;0.70;;;;;;;-3.04;100.00;97797.09;108955;1254;73336;-59
2023/11/27 04:13:37;;;;;;;1.00;0.70;;;;;;;-3.04;100.00;97807.63;108841;1255;60871;-59
2023/11/27 04:16:05;;;;;;;1.00;0.60;;;;;;;-3.02;100.00;97804.42;108981;1254;58912;-58
2023/11/27 04:18:33;;;;;;;1.70;0.60;;;;;;;-3.01;100.00;97807.04;108940;1254;73950;-58
2023/11/27 04:21:02;;;;;;;1.80;0.60;;;;;;;-3.01;100.00;97809.84;108357;1255;66824;-57
2023/11/27 04:23:30;;;;;;;1.20;0.60;;;;;;;-3.00;100.00;97815.10;105262;1259;72721;-57
2023/11/27 04:25:57;;;;;;;2.30;0.70;;;;;;;-3.00;100.00;97804.74;105378;1254;60544;-57
2023/11/27 04:28:25;;;;;;;1.40;0.80;;;;;;;-3.02;100.00;97809.18;105417;1256;60467;-58
2023/11/27 04:30:52;;;;;;;0.90;0.70;;;;;;;-3.04;100.00;97812.01;109058;1254;73130;-59
2023/11/27 04:33:20;;;;;;;3.30;0.80;;;;;;;-3.08;100.00;97821.23;108879;1253;67703;-58
2023/11/27 04:35:48;;;;;;;4.20;0.80;;;;;;;-3.12;100.00;97817.48;105242;1257;73058;-58
2023/11/27 04:38:19;;;;;;;2.10;0.70;;;;;;;-3.16;100.00;97825.31;105335;1256;61717;-57
2023/11/27 04:40:47;;;;;;;5.40;0.80;;;;;;;-3.20;100.00;97817.50;105135;1254;60388;-59
2023/11/27 04:43:14;;;;;;;3.70;0.70;;;;;;;-3.22;100.00;97821.40;105207;1254;75698;-57
2023/11/27 04:45:42;;;;;;;3.50;0.80;;;;;;;-3.24;100.00;97820.06;105403;1254;64938;-58
2023/11/27 04:48:10;;;;;;;5.90;0.90;;;;;;;-3.25;100.00;97824.47;105505;1254;72749;-59
2023/11/27 04:50:37;;;;;;;2.00;0.80;;;;;;;-3.26;100.00;97827.48;105747;1256;60494;-58
2023/11/27 04:53:05;;;;;;;2.40;0.90;;;;;;;-3.28;100.00;97817.16;105185;1256;60576;-57
2023/11/27 04:55:33;;;;;;;3.20;0.80;;;;;;;-3.31;100.00;97826.16;105174;1259;75512;-57
2023/11/27 04:58:01;;;;;;;1.60;0.80;;;;;;;-3.33;100.00;97824.50;105318;1255;66059;-57
2023/11/27 05:00:29;;;;;;;1.80;1.10;;;;;;;-3.36;100.00;97835.79;105431;1259;71490;-57
2023/11/27 05:02:56;;;;;;;1.30;0.80;;;;;;;-3.40;100.00;97833.05;105253;1258;60586;-56
2023/11/27 05:05:24;;;;;;;6.80;2.00;;;;;;;-3.42;100.00;97832.79;105521;1256;60649;-58
2023/11/27 05:07:51;;;;;;;1.40;0.80;;;;;;;-3.45;100.00;97837.56;105262;1256;74345;-58
2023/11/27 05:10:19;;;;;;;1.00;0.70;;;;;;;-3.46;100.00;97845.65;105569;1254;66946;-57
2023/11/27 05:12:47;;;;;;;2.00;0.90;;;;;;;-3.47;100.00;97850.93;105119;1256;72081;-57
2023/11/27 05:15:14;;;;;;;1.10;0.70;;;;;;;-3.48;100.00;97856.73;105290;1256;60715;-56
2023/11/27 05:17:42;;;;;;;3.20;0.90;;;;;;;-3.50;100.00;97854.16;105037;1255;60449;-55
2023/11/27 05:20:10;;;;;;;1.30;0.90;;;;;;;-3.51;100.00;97856.66;105260;1256;72602;-57
2023/11/27 05:22:37;;;;;;;2.20;1.00;;;;;;;-3.51;100.00;97859.45;105289;1256;66202;-58
2023/11/27 05:25:05;;;;;;;6.00;0.90;;;;;;;-3.51;100.00;97862.45;105364;1254;72074;-57
2023/11/27 05:27:33;;;;;;;2.60;1.10;;;;;;;-3.53;100.00;97857.39;106444;1256;61044;-57
2023/11/27 05:30:00;;;;;;;1.70;1.00;;;;;;;-3.55;100.00;97858.47;105156;1254;60489;-56
2023/11/27 05:32:28;;;;;;;1.40;0.90;;;;;;;-3.55;100.00;97861.98;105710;1256;74574;-57
2023/11/27 05:34:56;;;;;;;1.50;0.90;;;;;;;-3.57;100.00;97861.85;105097;1258;66880;-55
2023/11/27 05:37:23;;;;;;;2.50;1.90;;;;;;;-3.57;100.00;97868.00;105773;1258;74436;-56
2023/11/27 05:39:51;;;;;;;1.80;1.00;;;;;;;-3.59;100.00;97872.25;105015;1258;61519;-57
2023/11/27 05:42:20;;;;;;;4.20;1.20;;;;;;;-3.60;100.00;97870.88;105238;1256;60525;-56
2023/11/27 05:44:49;;;;;;;2.20;0.90;;;;;;;-3.60;100.00;97872.48;105913;1256;72961;-57
2023/11/27 05:47:16;;;;;;;2.20;1.10;;;;;;;-3.59;100.00;97878.41;106038;1258;66132;-56
2023/11/27 05:49:44;;;;;;;2.40;1.10;;;;;;;-3.59;100.00;97878.92;105708;1256;72481;-57
2023/11/27 05:52:11;;;;;;;4.40;1.10;;;;;;;-3.58;100.00;97881.52;105226;1256;61488;-57
2023/11/27 05:54:39;;;;;;;2.10;1.20;;;;;;;-3.58;100.00;97879.27;105588;1256;60542;-56
2023/11/27 05:57:06;;;;;;;2.00;1.50;;;;;;;-3.57;100.00;97878.52;105176;1258;73876;-57
2023/11/27 05:59:34;;;;;;;3.70;1.00;;;;;;;-3.57;100.00;97883.94;105361;1258;66201;-59
2023/11/27 06:02:01;;;;;;;6.70;1.10;;;;;;;-3.56;100.00;97886.38;105235;1256;72062;-58
2023/11/27 06:04:29;;;;;;;1.80;1.10;;;;;;;-3.56;100.00;97884.27;105179;1255;60637;-57
2023/11/27 06:06:58;;;;;;;1.70;1.00;;;;;;;-3.56;100.00;97887.61;103268;1256;3435395;-57
2023/11/27 06:11:34;;;;;;;3.30;1.10;;;;;;;-3.51;100.00;97953.61;102161;1295;615619;-56
2023/11/27 06:14:01;;;;;;;2.90;1.30;;;;;;;-3.50;100.00;97969.02;104722;1270;59330;-57
2023/11/27 06:16:28;;;;;;;2.70;1.30;;;;;;;-3.48;100.00;97960.02;104782;1266;60254;-56
2023/11/27 06:18:55;;;;;;;4.90;1.50;;;;;;;-3.48;100.00;97952.81;105235;1263;72560;-56
2023/11/27 06:21:22;;;;;;;1.50;1.00;;;;;;;-3.47;100.00;97952.11;108703;1257;66057;-57
2023/11/27 06:23:51;;;;;;;3.40;0.90;;;;;;;-3.46;100.00;97950.68;105207;1258;3470751;-57
2023/11/27 06:26:18;;;;;;;2.30;1.40;;;;;;;-3.44;100.00;97951.17;105137;1254;59315;-57
2023/11/27 06:28:45;;;;;;;3.00;0.70;;;;;;;-3.40;100.00;97942.17;105908;1256;59395;-57
2023/11/27 06:31:12;;;;;;;1.50;0.90;;;;;;;-3.37;100.00;97944.71;105256;1260;73020;-59
2023/11/27 06:33:38;;;;;;;2.30;1.00;;;;;;;-3.34;100.00;97948.34;105378;1268;67058;-57
2023/11/27 06:36:06;;;;;;;1.00;0.80;;;;;;;-3.30;100.00;97949.63;105374;1259;73159;-57
2023/11/27 06:38:34;;;;;;;7.60;0.90;;;;;;;-3.25;100.00;97957.79;106504;1259;61260;-56
2023/11/27 06:41:01;;;;;;;1.70;0.90;;;;;;;-3.22;100.00;97961.38;105141;1258;60083;-57
2023/11/27 06:43:28;;;;;;;2.00;1.10;;;;;;;-3.19;100.00;97965.38;106323;1255;72905;-57
2023/11/27 06:45:55;;;;;;;1.50;1.00;;;;;;;-3.16;100.00;97964.43;108759;1257;68400;-56
2023/11/27 06:48:22;;;;;;;1.60;1.10;;;;;;;-3.14;100.00;97969.12;106041;1259;72669;-57
2023/11/27 06:50:49;;;;;;;4.00;1.10;;;;;;;-3.12;100.00;97970.11;108971;1255;61170;-58
2023/11/27 06:53:17;;;;;;;1.60;1.00;;;;;;;-3.09;100.00;97971.45;108859;1258;60767;-57
2023/11/27 06:55:44;;;;;;;1.80;1.00;;;;;;;-3.04;100.00;97971.52;109208;1253;73767;-58
2023/11/27 06:58:10;;;;;;;1.80;0.70;;;;;;;-3.00;100.00;97975.30;109299;1251;66940;-59
2023/11/27 07:00:37;;;;;;;4.20;1.00;;;;;;;-2.99;100.00;97980.02;109213;1251;72678;-59
2023/11/27 07:03:04;;;;;;;4.40;1.10;;;;;;;-2.99;100.00;97982.30;107232;1256;59686;-57
2023/11/27 07:05:31;;;;;;;1.90;0.90;;;;;;;-2.99;100.00;97982.48;105595;1254;60109;-58
2023/11/27 07:07:58;;;;;;;4.10;1.10;;;;;;;-3.00;100.00;97981.27;109241;1254;73793;-58
2023/11/27 07:10:25;;;;;;;2.90;1.00;;;;;;;-3.00;100.00;97995.48;109286;1254;67164;-58
2023/11/27 07:12:51;;;;;;;3.00;0.90;;;;;;;-2.99;100.00;97985.65;105906;1256;72715;-57
2023/11/27 07:15:19;;;;;;;3.30;1.10;;;;;;;-3.00;100.00;97989.17;109211;1254;61196;-58
2023/11/27 07:17:45;;;;;;;5.20;1.20;;;;;;;-3.00;100.00;97989.53;109289;1253;60691;-58
2023/11/27 07:20:17;;;;;;;2.10;0.90;;;;;;;-2.98;100.00;97993.51;109187;1253;73480;-58
2023/11/27 07:22:47;;;;;;;2.20;1.10;;;;;;;-2.94;100.00;98003.41;106710;1256;64852;-57
2023/11/27 07:25:16;;;;;;;3.80;0.90;;;;;;;-2.91;100.00;98002.66;105240;1257;71585;-55
2023/11/27 07:27:45;;;;;;;1.70;0.90;;;;;;;-2.89;100.00;98004.17;109293;1252;59931;-57
2023/11/27 07:30:12;;;;;;;2.20;1.00;;;;;;;-2.88;100.00;98014.69;106986;1254;60460;-57
2023/11/27 07:32:39;;;;;;;1.90;1.10;;;;;;;-2.90;100.00;98013.15;109265;1253;72865;-57
2023/11/27 07:35:07;;;;;;;1.40;0.90;;;;;;;-2.89;100.00;98012.62;106481;1257;66914;-57
2023/11/27 07:37:33;;;;;;;2.10;1.00;;;;;;;-2.89;100.00;98012.28;109294;1254;72653;-58
2023/11/27 07:40:01;;;;;;;6.10;1.10;;;;;;;-2.91;100.00;98023.37;107429;1253;61059;-57
2023/11/27 07:42:28;;;;;;;2.10;1.00;;;;;;;-2.94;100.00;98029.04;105447;1255;60848;-57
2023/11/27 07:44:54;;;;;;;1.80;1.30;;;;;;;-2.96;100.00;98024.16;105558;1255;73405;-57
2023/11/27 07:47:22;;;;;;;1.30;1.10;;;;;;;-2.97;100.00;98026.84;105613;1256;67108;-56
2023/11/27 07:49:50;;;;;;;1.50;0.90;;;;;;;-2.95;100.00;98030.64;106616;1254;72650;-57
2023/11/27 07:52:16;;;;;;;2.00;1.30;;;;;;;-2.93;100.00;98027.79;105638;1257;61223;-57
2023/11/27 07:54:43;;;;;;;2.20;0.90;;;;;;;-2.92;100.00;98035.67;106035;1254;60010;-56
2023/11/27 07:57:10;;;;;;;2.30;1.20;;;;;;;-2.93;100.00;98036.91;105629;1256;73065;-56
2023/11/27 07:59:36;;;;;;;2.10;1.10;;;;;;;-2.94;100.00;98048.70;105478;1254;60564;-56
2023/11/27 08:02:03;;;;;;;2.40;1.20;;;;;;;-2.98;100.00;98040.89;105585;1254;73214;-57
2023/11/27 08:04:32;;;;;;;2.80;0.80;;;;;;;-3.01;100.00;98040.95;106112;1257;62039;-58
2023/11/27 08:07:00;;;;;;;1.90;1.00;;;;;;;-3.04;100.00;98046.96;105457;1254;61868;-58
2023/11/27 08:09:27;;;;;;;2.50;1.00;;;;;;;-3.06;100.00;98048.23;107113;1254;72939;-58
2023/11/27 08:11:54;;;;;;;6.80;1.10;;;;;;;-3.05;100.00;98048.57;106322;1253;66753;-58
2023/11/27 08:14:21;;;;;;;2.90;0.80;;;;;;;-3.04;100.00;98047.84;105660;1254;70973;-57
2023/11/27 08:16:48;;;;;;;2.70;1.00;;;;;;;-3.03;100.00;98051.52;105368;1257;59940;-57
2023/11/27 08:19:16;;;;;;;1.70;0.80;;;;;;;-3.00;100.00;98046.73;105462;1254;60135;-58
2023/11/27 08:21:44;;;;;;;3.80;1.00;;;;;;;-2.97;100.00;98049.83;107071;1253;73552;-58
2023/11/27 08:24:14;;;;;;;2.10;0.90;;;;;;;-2.93;100.00;98061.33;105235;1254;67119;-57
2023/11/27 08:26:41;;;;;;;2.90;0.90;;;;;;;-2.91;100.00;98054.43;105855;1257;72438;-56
2023/11/27 08:29:08;;;;;;;2.00;0.90;;;;;;;-2.90;100.00;98050.37;105618;1258;59691;-58
2023/11/27 08:31:35;;;;;;;2.70;0.80;;;;;;;-2.88;100.00;98052.05;105683;1260;59653;-56
2023/11/27 08:34:05;;;;;;;2.00;1.00;;;;;;;-2.86;100.00;98051.50;105744;1257;73122;-57
2023/11/27 08:36:32;;;;;;;5.90;1.10;;;;;;;-2.84;100.00;98055.14;105298;1257;67282;-56
2023/11/27 08:39:01;;;;;;;1.50;0.90;;;;;;;-2.80;100.00;98059.27;105646;1258;73055;-57
2023/11/27 08:41:28;;;;;;;1.80;1.00;;;;;;;-2.77;100.00;98061.48;105425;1259;61189;-57
2023/11/27 08:43:55;;;;;;;2.20;0.80;;;;;;;-2.74;100.00;98062.66;105614;1253;60925;-58
2023/11/27 08:46:22;;;;;;;1.60;0.80;;;;;;;-2.71;100.00;98070.64;105529;1255;73490;-58
2023/11/27 08:48:49;;;;;;;2.50;0.80;;;;;;;-2.68;100.00;98077.27;105836;1258;67625;-58
2023/11/27 08:51:16;;;;;;;1.00;0.80;;;;;;;-2.69;100.00;98080.97;105671;1254;72459;-57
2023/11/27 08:53:43;;;;;;;2.40;0.90;;;;;;;-2.72;100.00;98079.44;105740;1257;59796;-58
2023/11/27 08:56:11;;;;;;;1.60;1.00;;;;;;;-2.73;100.00;98080.70;105640;1253;60590;-58
2023/11/27 08:58:38;;;;;;;1.90;0.90;;;;;;;-2.73;100.00;98084.04;106318;1255;73105;-57
2023/11/27 09:01:05;;;;;;;2.80;0.80;;;;;;;-2.72;100.00;98080.49;105630;1257;67210;-55
2023/11/27 09:03:32;;;;;;;1.80;0.80;;;;;;;-2.68;100.00;98089.02;105709;1254;72496;-58
2023/11/27 09:05:59;;;;;;;2.70;0.80;;;;;;;-2.67;100.00;98088.47;105506;1255;59790;-57
2023/11/27 09:08:26;;;;;;;3.20;0.80;;;;;;;-2.65;100.00;98089.49;107301;1251;60301;-57
2023/11/27 09:10:53;;;;;;;1.30;0.80;;;;;;;-2.63;100.00;98087.49;105421;1254;73070;-59
2023/11/27 09:13:20;;;;;;;3.00;0.80;;;;;;;-2.61;100.00;98080.27;105608;1257;68130;-57
2023/11/27 09:15:47;;;;;;;1.80;1.00;;;;;;;-2.60;100.00;98082.70;106109;1256;72704;-56
2023/11/27 09:18:14;;;;;;;3.80;0.80;;;;;;;-2.60;100.00;98082.17;105549;1254;60026;-55
2023/11/27 09:20:41;;;;;;;1.70;0.80;;;;;;;-2.60;100.00;98083.75;106252;1253;60247;-58
2023/11/27 09:23:08;;;;;;;3.50;1.00;;;;;;;-2.62;100.00;98083.95;105419;1257;73663;-56
2023/11/27 09:25:35;;;;;;;1.60;0.70;;;;;;;-2.63;100.00;98087.33;105554;1254;67191;-58
2023/11/27 09:28:03;;;;;;;1.20;0.80;;;;;;;-2.65;100.00;98086.86;106259;1257;73132;-58
2023/11/27 09:30:30;;;;;;;3.00;0.80;;;;;;;-2.66;100.00;98085.30;106336;1252;62196;-56
2023/11/27 09:32:56;;;;;;;1.30;0.80;;;;;;;-2.62;100.00;98095.75;105429;1254;60528;-57
2023/11/27 09:35:23;;;;;;;1.30;0.70;;;;;;;-2.57;100.00;98086.86;105578;1254;73386;-57
2023/11/27 09:37:50;;;;;;;1.90;0.70;;;;;;;-2.55;100.00;98097.01;105692;1257;68338;-59
2023/11/27 09:40:17;;;;;;;1.20;0.80;;;;;;;-2.55;100.00;98102.80;105821;1257;73007;-57
2023/11/27 09:42:44;;;;;;;1.50;0.80;;;;;;;-2.54;100.00;98112.06;105577;1253;59940;-58
2023/11/27 09:45:18;;;;;;;2.20;1.00;;;;;;;-2.54;100.00;98108.03;105525;1257;60323;-57
2023/11/27 09:47:47;;;;;;;2.80;0.70;;;;;;;-2.57;100.00;98115.48;108759;1253;72846;-57
2023/11/27 09:50:15;;;;;;;0.90;0.60;;;;;;;-2.61;100.00;98107.66;105746;1258;67195;-59
2023/11/27 09:52:54;;;;;;;1.30;0.80;;;;;;;-2.66;100.00;98105.15;105518;1256;72684;-56
2023/11/27 09:55:21;;;;;;;1.00;0.80;;;;;;;-2.72;100.00;98102.80;109315;1252;60579;-58
2023/11/27 09:57:49;;;;;;;1.70;0.80;;;;;;;-2.75;100.00;98101.46;109114;1254;58925;-58
2023/11/27 10:00:20;;;;;;;1.10;0.70;;;;;;;-2.74;100.00;98095.66;109107;1253;72728;-59
2023/11/27 10:02:48;;;;;;;3.50;0.80;;;;;;;-2.69;100.00;98099.59;108981;1254;68982;-58
2023/11/27 10:05:21;;;;;;;4.80;0.70;;;;;;;-2.63;100.00;98110.00;109133;1253;72130;-58
2023/11/27 10:07:52;;;;;;;3.70;0.70;;;;;;;-2.58;100.00;98106.38;108830;1254;57992;-59
2023/11/27 10:10:26;;;;;;;2.80;0.80;;;;;;;-2.55;100.00;98114.03;106130;1259;60196;-57
2023/11/27 10:13:02;;;;;;;2.30;0.70;;;;;;;-2.52;100.00;98114.84;105563;1257;73359;-56
2023/11/27 10:15:35;;;;;;;4.90;0.80;;;;;;;-2.52;100.00;98120.63;109162;1253;65986;-58
2023/11/27 10:18:03;;;;;;;4.00;0.80;;;;;;;-2.55;100.00;98119.46;109145;1253;71465;-57
2023/11/27 10:20:32;;;;;;;3.60;0.80;;;;;;;-2.57;100.00;98123.04;109163;1254;60885;-57
2023/11/27 10:23:01;;;;;;;1.40;0.80;;;;;;;-2.58;100.00;98117.80;109114;1253;59360;-57
2023/11/27 10:25:29;;;;;;;1.10;0.70;;;;;;;-2.56;100.00;98119.84;108602;1254;73699;-56
2023/11/27 10:28:00;;;;;;;1.80;1.20;;;;;;;-2.51;100.00;98120.25;106501;1254;67217;-55
2023/11/27 10:30:30;;;;;;;5.20;0.60;;;;;;;-2.46;100.00;98126.48;108877;1253;73955;-56
2023/11/27 10:32:57;;;;;;;4.10;0.70;;;;;;;-2.40;100.00;98131.07;109187;1253;58160;-55
2023/11/27 10:35:25;;;;;;;0.80;0.60;;;;;;;-2.33;100.00;98131.45;108801;1252;59772;-54
2023/11/27 10:37:57;;;;;;;2.00;0.70;;;;;;;-2.26;100.00;98139.02;105393;1259;73483;-56
2023/11/27 10:40:27;;;;;;;1.90;0.80;;;;;;;-2.22;100.00;98137.19;109097;1254;67697;-57
2023/11/27 10:43:00;;;;;;;2.70;1.10;;;;;;;-2.21;100.00;98143.82;107238;1253;71039;-55
2023/11/27 10:45:29;;;;;;;1.30;0.80;;;;;;;-2.18;100.00;98146.55;105658;1257;60488;-54
2023/11/27 10:47:56;;;;;;;3.00;0.90;;;;;;;-2.17;100.00;98146.19;105503;1254;61032;-57
2023/11/27 10:50:23;;;;;;;3.80;0.80;;;;;;;-2.17;100.00;98149.52;106508;1253;74022;-59
2023/11/27 10:52:50;;;;;;;3.50;0.90;;;;;;;-2.18;100.00;98144.27;105358;1254;67224;-57
2023/11/27 10:55:18;;;;;;;2.10;0.90;;;;;;;-2.21;100.00;98143.09;106706;1253;73136;-57
2023/11/27 10:57:49;;;;;;;3.00;0.80;;;;;;;-2.21;100.00;98152.94;105715;1256;60540;-57
2023/11/27 11:01:01;;;;;;;1.10;0.70;;;;;;;-2.20;100.00;98151.52;105417;1257;60556;-58
2023/11/27 11:03:14;;;;;;;1.20;0.70;;;;;;;-2.21;100.00;98155.43;105420;1257;73971;-55
2023/11/27 11:05:45;;;;;;;1.20;0.80;;;;;;;-2.24;100.00;98164.45;106373;1254;67422;-56
2023/11/27 11:08:13;;;;;;;2.20;0.80;;;;;;;-2.24;100.00;98167.60;106323;1257;72735;-55
2023/11/27 11:10:41;;;;;;;4.30;0.70;;;;;;;-2.21;100.00;98163.86;105789;1254;62565;-57
2023/11/27 11:13:14;;;;;;;3.90;0.70;;;;;;;-2.15;100.00;98175.49;105596;1253;60533;-55
2023/11/27 11:16:00;;;;;;;2.60;0.80;;;;;;;-2.07;100.00;98180.41;105495;1253;73803;-55
2023/11/27 11:18:36;;;;;;;1.50;0.80;;;;;;;-2.02;100.00;98187.13;105973;1252;66899;-57
2023/11/27 11:21:20;;;;;;;1.70;0.80;;;;;;;-2.00;100.00;98183.92;105755;1253;73739;-59
2023/11/27 11:24:13;;;;;;;1.10;0.70;;;;;;;-2.00;100.00;98192.88;105746;1256;60523;-55